Time;durP1;ratioP1;P1;durP2;ratioP2;P2;SDS_P1;SDS_P2;PMS_P1;PMS_P2;Temp;Humidity;BMP_temperature;BMP_pressure;BME280_temperature;BME280_humidity;BME280_pressure;Samples;Min_cycle;Max_cycle;Signal;HPM_P1;HPM_P2
2022/12/25 00:02:09;;;;;;;20.40;8.47;;;;;;;3.04;100.00;100291.31;1681065;85;21079;-75
2022/12/25 00:04:58;;;;;;;19.83;8.63;;;;;;;3.03;100.00;100291.80;1681434;82;21119;-73
2022/12/25 00:07:32;;;;;;;22.10;8.37;;;;;;;3.02;100.00;100289.24;1679338;85;21568;-74
2022/12/25 00:10:22;;;;;;;19.60;8.30;;;;;;;3.02;100.00;100293.25;1630752;87;21114;-73
2022/12/25 00:13:05;;;;;;;18.48;8.08;;;;;;;3.02;100.00;100288.75;1653854;87;21071;-73
2022/12/25 00:15:32;;;;;;;17.73;7.40;;;;;;;3.04;100.00;100289.48;1604018;88;21530;-72
2022/12/25 00:18:00;;;;;;;19.23;8.47;;;;;;;3.07;100.00;100283.56;1738046;80;21023;-73
2022/12/25 00:20:26;;;;;;;19.03;8.10;;;;;;;3.07;100.00;100285.73;1783026;80;21050;-73
2022/12/25 00:22:54;;;;;;;17.30;7.97;;;;;;;3.10;100.00;100280.17;1782727;80;21074;-71
2022/12/25 00:25:21;;;;;;;19.20;7.87;;;;;;;3.11;100.00;100281.02;1783095;80;21014;-73
2022/12/25 00:27:48;;;;;;;18.53;8.07;;;;;;;3.12;100.00;100290.25;1783132;80;21038;-72
2022/12/25 00:30:15;;;;;;;19.53;8.03;;;;;;;3.13;100.00;100280.41;1782697;80;21037;-71
2022/12/25 00:32:42;;;;;;;17.23;7.47;;;;;;;3.15;100.00;100282.47;1783097;80;21515;-70
2022/12/25 00:35:09;;;;;;;20.37;8.33;;;;;;;3.18;100.00;100282.24;1760966;80;21030;-71
2022/12/25 00:37:37;;;;;;;18.43;7.87;;;;;;;3.18;100.00;100275.07;1782784;80;21077;-73
2022/12/25 00:40:06;;;;;;;17.57;7.97;;;;;;;3.19;100.00;100272.78;1782760;80;21014;-72
2022/12/25 00:42:33;;;;;;;18.00;7.73;;;;;;;3.21;100.00;100270.84;1783039;80;20986;-73
2022/12/25 00:45:01;;;;;;;19.43;8.53;;;;;;;3.21;100.00;100265.48;1782772;80;21074;-72
2022/12/25 00:47:28;;;;;;;21.93;8.53;;;;;;;3.21;100.00;100269.99;1783045;80;21010;-72
2022/12/25 00:49:55;;;;;;;19.17;8.40;;;;;;;3.20;100.00;100259.77;1783180;80;21015;-72
2022/12/25 00:52:22;;;;;;;20.33;8.07;;;;;;;3.19;100.00;100264.77;1782941;80;21017;-72
2022/12/25 00:54:49;;;;;;;18.53;8.03;;;;;;;3.20;100.00;100265.61;1760992;80;20990;-74
2022/12/25 00:57:16;;;;;;;18.90;8.23;;;;;;;3.20;100.00;100268.27;1782558;80;21062;-72
2022/12/25 00:59:44;;;;;;;19.53;8.60;;;;;;;3.18;100.00;100273.73;1782734;80;21567;-73
2022/12/25 01:02:23;;;;;;;18.83;8.00;;;;;;;3.15;100.00;100266.44;1782589;80;21053;-71
2022/12/25 01:04:55;;;;;;;18.10;8.00;;;;;;;3.14;100.00;100270.10;1782510;80;21077;-71
2022/12/25 01:07:24;;;;;;;17.50;7.45;;;;;;;3.12;100.00;100264.02;1782988;80;21022;-73
2022/12/25 01:12:40;;;;;;;20.63;7.87;;;;;;;3.13;100.00;100265.22;1782843;80;21520;-72
2022/12/25 01:15:08;;;;;;;21.17;8.90;;;;;;;3.14;100.00;100264.27;1782530;80;21018;-74
2022/12/25 01:17:36;;;;;;;16.27;7.97;;;;;;;3.14;100.00;100266.09;1782714;80;21026;-72
2022/12/25 01:20:04;;;;;;;23.63;9.07;;;;;;;3.12;100.00;100268.03;1782753;80;21018;-74
2022/12/25 01:22:31;;;;;;;18.83;8.20;;;;;;;3.08;100.00;100266.08;1782794;80;20995;-71
2022/12/25 01:24:58;;;;;;;20.10;8.73;;;;;;;3.07;100.00;100262.19;1782608;80;21041;-73
2022/12/25 01:27:25;;;;;;;20.60;8.53;;;;;;;3.08;100.00;100268.75;1782727;80;21022;-71
2022/12/25 01:29:53;;;;;;;20.03;8.63;;;;;;;3.09;100.00;100271.77;1782523;80;21030;-72
2022/12/25 01:32:20;;;;;;;18.50;7.83;;;;;;;3.08;100.00;100266.55;1782932;80;21132;-71
2022/12/25 01:34:47;;;;;;;21.93;8.63;;;;;;;3.09;100.00;100259.75;1761419;80;20987;-71
2022/12/25 01:46:10;;;;;;;20.48;8.95;;;;;;;3.06;100.00;100259.98;1782578;80;21065;-73
2022/12/25 01:52:49;;;;;;;21.07;8.53;;;;;;;3.02;100.00;100258.03;1782593;80;21030;-71
2022/12/25 01:55:28;;;;;;;18.83;8.07;;;;;;;2.98;100.00;100250.38;1782217;80;21086;-72
2022/12/25 02:02:24;;;;;;;17.67;7.53;;;;;;;2.98;100.00;100253.90;1776540;80;21114;-73
2022/12/25 02:09:19;;;;;;;19.40;7.53;;;;;;;3.02;100.00;100265.20;1779835;81;21515;-73
2022/12/25 02:12:00;;;;;;;18.93;8.20;;;;;;;2.99;100.00;100270.30;1780389;80;21015;-72
2022/12/25 02:14:37;;;;;;;18.97;8.13;;;;;;;2.94;100.00;100263.13;1782498;80;20963;-72
2022/12/25 02:21:34;;;;;;;19.75;7.33;;;;;;;2.93;100.00;100276.59;1782558;80;21025;-71
2022/12/25 02:24:20;;;;;;;21.13;8.13;;;;;;;2.93;100.00;100271.25;1782136;80;21070;-74
2022/12/25 02:27:37;;;;;;;18.47;8.33;;;;;;;2.90;100.00;100270.98;1782302;80;20999;-72
2022/12/25 02:30:08;;;;;;;20.93;8.13;;;;;;;2.87;100.00;100271.23;1772054;80;21038;-73
2022/12/25 02:32:45;;;;;;;18.23;8.23;;;;;;;2.83;100.00;100273.28;1776880;80;21002;-72
2022/12/25 02:35:24;;;;;;;20.10;8.53;;;;;;;2.79;100.00;100279.80;1782189;80;21034;-72
2022/12/25 02:38:04;;;;;;;21.57;9.83;;;;;;;2.79;100.00;100285.64;1780592;80;21015;-71
2022/12/25 02:40:47;;;;;;;18.13;7.80;;;;;;;2.79;100.00;100289.15;1781837;80;21050;-72
2022/12/25 03:06:46;;;;;;;18.93;8.50;;;;;;;2.71;100.00;100294.69;1781867;80;21026;-72
2022/12/25 03:12:38;;;;;;;20.43;9.30;;;;;;;2.71;100.00;100293.36;1782550;80;21050;-72
2022/12/25 03:17:52;;;;;;;21.47;9.07;;;;;;;2.71;100.00;100300.03;1781440;80;21559;-72
2022/12/25 03:28:36;;;;;;;24.20;8.83;;;;;;;2.71;100.00;100306.71;1782026;80;21030;-72
2022/12/25 03:31:41;;;;;;;23.23;10.00;;;;;;;2.70;100.00;100311.20;1782047;80;21503;-72
2022/12/25 04:36:20;;;;;;;26.20;10.93;;;;;;;2.62;100.00;100359.84;1782088;80;21551;-72
2022/12/25 04:38:47;;;;;;;26.63;10.60;;;;;;;2.60;100.00;100363.11;1782314;80;21053;-72
2022/12/25 04:41:14;;;;;;;26.20;11.17;;;;;;;2.61;100.00;100358.62;1782170;80;21034;-71
2022/12/25 04:43:41;;;;;;;27.07;10.13;;;;;;;2.63;100.00;100362.02;1782105;80;21078;-72
2022/12/25 04:46:08;;;;;;;25.40;10.97;;;;;;;2.64;100.00;100362.41;1782852;80;20986;-72
2022/12/25 04:48:35;;;;;;;22.97;10.43;;;;;;;2.68;100.00;100363.88;1783492;80;20987;-71
2022/12/25 04:51:15;;;;;;;25.60;10.50;;;;;;;2.71;100.00;100369.46;1782619;80;21022;-71
2022/12/25 04:53:43;;;;;;;24.90;10.77;;;;;;;2.72;100.00;100369.84;1781763;80;21041;-72
2022/12/25 04:56:10;;;;;;;23.87;10.07;;;;;;;2.71;100.00;100376.14;1782467;80;21053;-72
2022/12/25 04:58:37;;;;;;;27.23;10.40;;;;;;;2.69;100.00;100380.74;1781738;80;20986;-72
2022/12/25 05:01:04;;;;;;;25.57;10.37;;;;;;;2.67;100.00;100383.52;1781817;80;21014;-71
2022/12/25 05:03:32;;;;;;;29.83;12.00;;;;;;;2.69;100.00;100388.75;1782221;80;21113;-71
2022/12/25 05:05:58;;;;;;;29.80;11.23;;;;;;;2.71;100.00;100390.82;1782269;80;21006;-72
2022/12/25 05:08:27;;;;;;;28.70;11.13;;;;;;;2.71;100.00;100390.82;1782106;80;21436;-71
2022/12/25 05:10:54;;;;;;;27.90;10.10;;;;;;;2.73;100.00;100396.94;1781874;80;21014;-71
2022/12/25 05:13:21;;;;;;;26.23;10.33;;;;;;;2.73;100.00;100388.92;1781952;80;21018;-72
2022/12/25 05:15:48;;;;;;;26.53;10.77;;;;;;;2.73;100.00;100396.44;1782158;80;21070;-71
2022/12/25 05:18:14;;;;;;;28.13;11.13;;;;;;;2.71;100.00;100399.71;1782263;80;21068;-70
2022/12/25 05:20:42;;;;;;;28.30;11.40;;;;;;;2.70;100.00;100404.66;1776219;80;21039;-71
2022/12/25 05:23:11;;;;;;;27.80;10.97;;;;;;;2.69;100.00;100398.94;1772246;81;21050;-71
2022/12/25 05:25:39;;;;;;;23.53;10.53;;;;;;;2.69;100.00;100402.95;1773681;80;20994;-72
2022/12/25 05:28:06;;;;;;;27.87;10.93;;;;;;;2.70;100.00;100407.34;1782138;80;21504;-72
2022/12/25 05:30:34;;;;;;;25.53;10.20;;;;;;;2.69;100.00;100406.11;1782336;80;20975;-71
2022/12/25 05:33:01;;;;;;;27.97;11.67;;;;;;;2.69;100.00;100414.96;1782258;80;21482;-71
2022/12/25 05:47:17;;;;;;;38.20;19.07;;;;;;;2.99;100.00;100486.70;1779891;80;22892;-75
2022/12/25 05:49:44;;;;;;;42.10;21.77;;;;;;;3.01;100.00;100401.06;1761483;81;21029;-75
2022/12/25 05:52:10;;;;;;;34.40;17.93;;;;;;;2.98;100.00;100406.17;1761650;81;20961;-77
2022/12/25 05:54:37;;;;;;;29.40;15.17;;;;;;;2.95;100.00;100402.38;1727718;83;21062;-75
2022/12/25 05:57:05;;;;;;;30.67;15.43;;;;;;;2.92;100.00;100404.42;1707907;84;21101;-76
2022/12/25 05:59:32;;;;;;;31.37;14.23;;;;;;;2.89;100.00;100405.52;1707927;84;21097;-77
2022/12/25 06:01:59;;;;;;;32.23;14.73;;;;;;;2.83;100.00;100401.48;1766585;81;21470;-76
2022/12/25 06:04:27;;;;;;;30.40;13.47;;;;;;;2.80;100.00;100405.70;1766751;81;21020;-77
2022/12/25 06:06:53;;;;;;;29.07;13.10;;;;;;;2.78;100.00;100411.65;1766892;81;21446;-76
2022/12/25 06:09:20;;;;;;;33.90;14.53;;;;;;;2.75;100.00;100409.69;1766986;81;20988;-76
2022/12/25 06:11:47;;;;;;;30.83;13.83;;;;;;;2.72;100.00;100405.41;1767225;81;20961;-76
2022/12/25 06:14:14;;;;;;;36.90;13.63;;;;;;;2.71;100.00;100405.05;1766975;81;21036;-76
2022/12/25 06:16:41;;;;;;;35.93;13.97;;;;;;;2.70;100.00;100403.33;1766873;81;21486;-75
2022/12/25 06:19:08;;;;;;;32.53;13.43;;;;;;;2.68;100.00;100406.60;1767321;81;21305;-76
2022/12/25 06:21:35;;;;;;;32.63;13.07;;;;;;;2.67;100.00;100404.88;1766940;81;21001;-76
2022/12/25 06:24:02;;;;;;;30.50;12.13;;;;;;;2.66;100.00;100409.87;1767090;81;21007;-77
2022/12/25 06:26:29;;;;;;;30.43;12.27;;;;;;;2.66;100.00;100406.70;1766934;81;21013;-76
2022/12/25 06:28:56;;;;;;;32.33;12.77;;;;;;;2.69;100.00;100412.30;1766998;81;20988;-75
2022/12/25 06:31:24;;;;;;;31.90;11.90;;;;;;;2.70;100.00;100415.34;1766636;81;21004;-75
2022/12/25 06:33:51;;;;;;;31.17;11.83;;;;;;;2.72;100.00;100415.24;1766920;81;21028;-76
2022/12/25 06:36:24;;;;;;;34.17;13.67;;;;;;;2.72;100.00;100413.41;1766585;81;21577;-75
2022/12/25 06:38:51;;;;;;;34.20;12.77;;;;;;;2.72;100.00;100413.41;1767053;81;20993;-76
2022/12/25 06:41:23;;;;;;;33.80;13.43;;;;;;;2.72;100.00;100417.91;1766943;81;21012;-75
2022/12/25 06:43:54;;;;;;;33.97;14.37;;;;;;;2.70;100.00;100419.35;1766804;81;21004;-75
2022/12/25 06:46:22;;;;;;;35.60;13.07;;;;;;;2.71;100.00;100418.86;1698762;82;21535;-75
2022/12/25 06:48:49;;;;;;;36.07;13.87;;;;;;;2.72;100.00;100425.43;1699606;84;21054;-75
2022/12/25 06:51:17;;;;;;;33.90;12.37;;;;;;;2.73;100.00;100422.30;1699319;84;21018;-76
2022/12/25 06:53:47;;;;;;;36.50;13.77;;;;;;;2.75;100.00;100425.22;1675623;84;21054;-76
2022/12/25 06:56:19;;;;;;;35.13;14.73;;;;;;;2.79;100.00;100431.19;1682317;85;21078;-76
2022/12/25 06:58:54;;;;;;;36.97;14.57;;;;;;;2.82;100.00;100437.65;1744048;82;21008;-77
2022/12/25 07:01:36;;;;;;;34.87;13.40;;;;;;;2.83;100.00;100439.34;1743807;81;21037;-76
2022/12/25 07:04:06;;;;;;;32.23;12.10;;;;;;;2.88;100.00;100445.20;1743989;82;20997;-76
2022/12/25 07:06:35;;;;;;;44.75;14.45;;;;;;;2.91;100.00;100445.48;1743519;82;21479;-76
2022/12/25 07:09:02;;;;;;;35.87;13.63;;;;;;;2.92;100.00;100446.70;1743666;82;20994;-76
2022/12/25 07:11:29;;;;;;;38.03;14.50;;;;;;;2.92;100.00;100452.51;1743688;81;21040;-76
2022/12/25 07:13:56;;;;;;;36.37;14.23;;;;;;;2.93;100.00;100451.06;1744129;82;21510;-77
2022/12/25 07:16:23;;;;;;;34.97;14.70;;;;;;;2.95;100.00;100444.28;1743949;82;21045;-76
2022/12/25 07:18:50;;;;;;;37.23;14.30;;;;;;;2.98;100.00;100445.39;1743778;82;21033;-77
2022/12/25 07:21:18;;;;;;;36.30;14.70;;;;;;;3.01;100.00;100444.69;1743714;81;21041;-76
2022/12/25 07:23:48;;;;;;;34.30;13.23;;;;;;;3.02;100.00;100449.05;1744108;82;21052;-76
2022/12/25 07:26:16;;;;;;;38.87;13.57;;;;;;;3.06;100.00;100455.52;1743861;82;21009;-75
2022/12/25 07:28:43;;;;;;;36.97;14.47;;;;;;;3.09;100.00;100453.95;1743682;82;21028;-75
2022/12/25 07:31:12;;;;;;;40.13;17.23;;;;;;;3.13;100.00;100458.94;1744044;82;21056;-77
2022/12/25 07:33:39;;;;;;;41.27;17.73;;;;;;;3.18;100.00;100462.13;1744006;82;21001;-75
2022/12/25 07:36:07;;;;;;;41.50;17.77;;;;;;;3.21;100.00;100467.75;1743974;82;21017;-76
2022/12/25 07:38:33;;;;;;;41.60;16.63;;;;;;;3.23;100.00;100467.99;1744036;82;21052;-78
2022/12/25 07:41:00;;;;;;;37.73;15.67;;;;;;;3.27;100.00;100471.29;1743908;82;21090;-76
2022/12/25 07:43:28;;;;;;;36.63;14.87;;;;;;;3.32;100.00;100480.32;1743922;82;21010;-76
2022/12/25 07:45:59;;;;;;;31.77;13.30;;;;;;;3.36;100.00;100476.44;1743792;82;21089;-76
2022/12/25 07:48:27;;;;;;;32.00;13.10;;;;;;;3.40;100.00;100475.27;1748895;80;21510;-76
2022/12/25 07:51:00;;;;;;;32.63;14.20;;;;;;;3.42;100.00;100479.52;1751690;82;21458;-76
2022/12/25 07:53:27;;;;;;;31.27;12.82;;;;;;;3.47;100.00;100477.85;1751792;82;21056;-76
2022/12/25 07:56:03;;;;;;;36.17;13.93;;;;;;;3.51;100.00;100473.97;1751231;82;21055;-76
2022/12/25 07:58:30;;;;;;;36.80;15.20;;;;;;;3.54;100.00;100479.09;1751292;82;21047;-76
2022/12/25 08:01:08;;;;;;;36.40;15.20;;;;;;;3.59;100.00;100476.93;1751422;82;21043;-76
2022/12/25 08:03:34;;;;;;;36.13;14.33;;;;;;;3.63;100.00;100479.35;1750896;82;21068;-76
2022/12/25 08:06:06;;;;;;;32.87;11.80;;;;;;;3.64;100.00;100483.25;1751574;82;20985;-76
2022/12/25 08:08:34;;;;;;;35.10;13.80;;;;;;;3.68;100.00;100482.05;1751457;82;21024;-74
2022/12/25 08:11:01;;;;;;;32.87;14.00;;;;;;;3.68;100.00;100476.69;1751735;82;21577;-75
2022/12/25 08:13:31;;;;;;;36.40;14.13;;;;;;;3.68;100.00;100481.20;1751534;82;21068;-75
2022/12/25 08:16:00;;;;;;;36.83;14.53;;;;;;;3.65;100.00;100475.61;1751603;82;21040;-74
2022/12/25 08:18:31;;;;;;;40.83;15.80;;;;;;;3.63;100.00;100480.23;1751354;82;21005;-76
2022/12/25 08:21:08;;;;;;;37.40;14.27;;;;;;;3.61;100.00;100483.02;1751650;82;21051;-76
2022/12/25 08:23:37;;;;;;;34.73;13.97;;;;;;;3.59;100.00;100478.27;1751675;82;20992;-75
2022/12/25 08:26:07;;;;;;;37.90;14.53;;;;;;;3.61;100.00;100482.14;1751698;82;20989;-76
2022/12/25 08:28:34;;;;;;;41.10;15.17;;;;;;;3.61;100.00;100471.44;1751635;82;21072;-75
2022/12/25 08:31:17;;;;;;;37.40;14.80;;;;;;;3.63;100.00;100472.66;1726416;82;21001;-74
2022/12/25 08:33:44;;;;;;;35.83;13.47;;;;;;;3.62;100.00;100478.51;1735192;82;21033;-76
2022/12/25 08:36:11;;;;;;;34.47;13.20;;;;;;;3.63;100.00;100482.03;1743798;82;21069;-75
2022/12/25 08:38:38;;;;;;;34.73;12.77;;;;;;;3.62;100.00;100481.19;1743965;82;21024;-75
2022/12/25 08:41:07;;;;;;;32.93;12.70;;;;;;;3.61;100.00;100486.15;1743706;82;20977;-76
2022/12/25 08:43:33;;;;;;;31.87;12.43;;;;;;;3.61;100.00;100486.15;1743615;82;21080;-76
2022/12/25 08:46:01;;;;;;;38.27;13.70;;;;;;;3.61;100.00;100479.46;1743821;82;21061;-77
2022/12/25 08:48:28;;;;;;;35.13;12.17;;;;;;;3.62;100.00;100482.52;1739179;82;21068;-76
2022/12/25 08:50:55;;;;;;;34.50;12.80;;;;;;;3.64;100.00;100481.07;1720407;83;21041;-75
2022/12/25 08:53:24;;;;;;;33.13;12.57;;;;;;;3.64;100.00;100481.91;1720202;83;21093;-76
2022/12/25 08:56:03;;;;;;;30.63;11.60;;;;;;;3.61;100.00;100479.46;1720406;83;21096;-75
2022/12/25 08:58:30;;;;;;;31.00;12.03;;;;;;;3.59;100.00;100487.63;1770017;81;20969;-75
2022/12/25 09:00:57;;;;;;;34.30;12.90;;;;;;;3.58;100.00;100487.25;1769772;81;21493;-76
2022/12/25 09:03:24;;;;;;;32.50;11.47;;;;;;;3.58;100.00;100477.89;1770125;81;21055;-76
2022/12/25 09:05:52;;;;;;;31.57;12.27;;;;;;;3.58;100.00;100475.70;1769891;81;21016;-75
2022/12/25 09:08:20;;;;;;;30.87;11.40;;;;;;;3.60;100.00;100471.09;1770150;81;21125;-76
2022/12/25 09:10:48;;;;;;;34.77;12.60;;;;;;;3.60;100.00;100466.59;1735954;83;21057;-75
2022/12/25 09:13:15;;;;;;;30.67;11.17;;;;;;;3.61;100.00;100460.28;1736201;83;21081;-74
2022/12/25 09:15:42;;;;;;;31.33;11.67;;;;;;;3.64;100.00;100458.34;1720237;83;21553;-76
2022/12/25 09:18:09;;;;;;;40.00;14.43;;;;;;;3.67;100.00;100462.12;1720525;83;21519;-76
2022/12/25 09:20:37;;;;;;;35.90;13.07;;;;;;;3.72;100.00;100456.79;1769780;81;21020;-76
2022/12/25 09:23:03;;;;;;;39.47;13.97;;;;;;;3.74;100.00;100458.86;1770260;81;20957;-76
2022/12/25 09:25:30;;;;;;;42.67;13.73;;;;;;;3.76;100.00;100459.59;1770191;81;21525;-76
2022/12/25 09:27:57;;;;;;;35.37;13.27;;;;;;;3.77;100.00;100452.41;1770065;81;21048;-76
2022/12/25 09:30:24;;;;;;;32.00;12.20;;;;;;;3.77;100.00;100447.94;1770089;81;21028;-75
2022/12/25 09:32:51;;;;;;;33.00;12.03;;;;;;;3.75;100.00;100447.20;1770174;81;21450;-75
2022/12/25 09:35:17;;;;;;;33.97;12.30;;;;;;;3.73;100.00;100445.10;1769927;81;21008;-76
2022/12/25 09:37:44;;;;;;;30.80;11.17;;;;;;;3.74;100.00;100442.81;1770074;81;20976;-76
2022/12/25 09:40:17;;;;;;;30.70;11.27;;;;;;;3.80;100.00;100454.86;1769827;81;21001;-75
2022/12/25 09:42:44;;;;;;;31.80;12.13;;;;;;;3.85;100.00;100451.34;1770142;81;21000;-77
2022/12/25 09:45:18;;;;;;;32.93;10.97;;;;;;;3.90;100.00;100452.34;1770321;81;21028;-77
2022/12/25 09:47:46;;;;;;;33.90;12.03;;;;;;;3.91;100.00;100449.55;1732891;81;21086;-76
2022/12/25 09:50:20;;;;;;;31.37;12.13;;;;;;;3.95;100.00;100455.03;1707682;84;21078;-77
2022/12/25 09:53:10;;;;;;;26.57;9.77;;;;;;;3.99;100.00;100456.48;1766203;81;21493;-77
2022/12/25 09:55:59;;;;;;;30.93;11.13;;;;;;;4.01;100.00;100444.33;1766074;81;21020;-77
2022/12/25 09:58:27;;;;;;;29.60;11.90;;;;;;;4.04;100.00;100449.91;1766506;81;21518;-76
2022/12/25 10:01:18;;;;;;;39.27;15.47;;;;;;;4.06;100.00;100450.67;1738811;81;21075;-76
2022/12/25 10:04:13;;;;;;;45.20;17.77;;;;;;;4.05;100.00;100444.94;1727807;83;21476;-77
2022/12/25 10:06:58;;;;;;;43.90;17.83;;;;;;;4.06;100.00;100450.18;1707457;84;21062;-76
2022/12/25 10:10:04;;;;;;;46.47;18.97;;;;;;;4.06;100.00;100452.86;1766331;81;20965;-76
2022/12/25 10:13:10;;;;;;;44.07;18.60;;;;;;;4.07;100.00;100455.91;1766073;81;21023;-76
2022/12/25 10:16:00;;;;;;;43.13;18.53;;;;;;;4.08;100.00;100448.73;1766454;81;21024;-77
2022/12/25 10:18:45;;;;;;;51.90;20.20;;;;;;;4.10;100.00;100453.47;1707375;83;21110;-75
2022/12/25 10:21:14;;;;;;;49.10;18.97;;;;;;;4.11;100.00;100457.86;1665973;85;21578;-76
2022/12/25 10:23:52;;;;;;;47.77;19.27;;;;;;;4.10;100.00;100456.98;1707690;84;20998;-77
2022/12/25 10:26:21;;;;;;;37.03;15.97;;;;;;;4.10;100.00;100444.10;1764916;81;21024;-76
2022/12/25 10:28:56;;;;;;;37.03;14.57;;;;;;;4.12;100.00;100440.81;1766415;81;21012;-76
2022/12/25 10:31:28;;;;;;;42.43;16.40;;;;;;;4.13;100.00;100436.69;1766794;81;20997;-77
2022/12/25 10:33:56;;;;;;;42.27;15.17;;;;;;;4.14;100.00;100433.05;1766622;81;21056;-77
2022/12/25 10:36:25;;;;;;;41.03;15.27;;;;;;;4.11;100.00;100427.09;1766662;81;21040;-76
2022/12/25 10:38:52;;;;;;;41.93;13.87;;;;;;;4.10;100.00;100434.24;1727616;82;21014;-77
2022/12/25 10:41:45;;;;;;;33.50;13.03;;;;;;;4.11;100.00;100433.28;1727318;82;21092;-76
2022/12/25 10:44:19;;;;;;;37.90;12.20;;;;;;;4.14;100.00;100442.42;1708096;84;21038;-77
2022/12/25 10:46:50;;;;;;;35.57;12.80;;;;;;;4.22;100.00;100443.64;1766444;81;21044;-77
2022/12/25 10:49:18;;;;;;;35.13;13.33;;;;;;;4.27;100.00;100448.15;1757466;81;21020;-77
2022/12/25 10:51:45;;;;;;;34.57;13.13;;;;;;;4.31;100.00;100441.57;1751738;82;21072;-77
2022/12/25 10:54:31;;;;;;;37.03;12.73;;;;;;;4.32;100.00;100432.55;1751898;82;20993;-77
2022/12/25 10:57:11;;;;;;;34.83;13.00;;;;;;;4.28;100.00;100430.60;1751545;82;21037;-76
2022/12/25 10:59:56;;;;;;;39.60;12.80;;;;;;;4.23;100.00;100437.30;1751913;82;21056;-77
2022/12/25 11:02:29;;;;;;;39.90;13.33;;;;;;;4.19;100.00;100446.05;1751527;82;21076;-76
2022/12/25 11:05:13;;;;;;;34.50;13.18;;;;;;;4.17;100.00;100447.51;1752009;82;21068;-76
2022/12/25 11:07:55;;;;;;;;;;;;;;;4.14;100.00;100445.56;1754425;82;21036;-77
2022/12/25 11:10:24;;;;;;;38.53;13.10;;;;;;;4.13;100.00;100447.89;1751153;82;20139;-76
2022/12/25 11:12:51;;;;;;;34.90;12.20;;;;;;;4.11;100.00;100450.67;1751530;82;20993;-77
2022/12/25 11:15:43;;;;;;;42.30;14.77;;;;;;;4.09;100.00;100451.75;1751482;82;21087;-76
2022/12/25 11:18:25;;;;;;;38.70;13.70;;;;;;;4.10;100.00;100456.98;1751953;82;21040;-76
2022/12/25 11:20:58;;;;;;;34.33;12.47;;;;;;;4.10;100.00;100449.45;1752110;82;20993;-76
2022/12/25 11:23:27;;;;;;;42.27;15.13;;;;;;;4.10;100.00;100450.80;1751991;82;21017;-77
2022/12/25 11:26:04;;;;;;;39.80;15.07;;;;;;;4.09;100.00;100451.75;1751852;82;20997;-76
2022/12/25 11:28:34;;;;;;;37.77;13.47;;;;;;;4.10;100.00;100452.97;1751851;82;21016;-77
2022/12/25 11:31:12;;;;;;;36.10;13.77;;;;;;;4.12;100.00;100455.53;1751891;82;20949;-77
2022/12/25 11:33:50;;;;;;;46.53;15.67;;;;;;;4.14;100.00;100455.80;1751995;82;21075;-76
2022/12/25 11:36:28;;;;;;;41.13;14.00;;;;;;;4.19;100.00;100458.94;1722962;82;20997;-78
2022/12/25 11:39:10;;;;;;;39.33;12.90;;;;;;;4.20;100.00;100462.49;1740755;82;21069;-76
2022/12/25 11:41:37;;;;;;;42.43;14.20;;;;;;;4.19;100.00;100460.28;1691944;83;20977;-76
2022/12/25 11:44:08;;;;;;;43.57;16.27;;;;;;;4.15;100.00;100460.66;1721195;83;21053;-77
2022/12/25 11:46:42;;;;;;;40.17;14.00;;;;;;;4.10;100.00;100457.48;1721041;83;21112;-77
2022/12/25 11:49:13;;;;;;;40.95;14.90;;;;;;;4.04;100.00;100456.61;1723708;82;21540;-77
2022/12/25 11:51:42;;;;;;;40.77;13.57;;;;;;;3.97;100.00;100450.41;1707578;84;21030;-77
2022/12/25 11:54:24;;;;;;;39.03;13.97;;;;;;;3.90;100.00;100446.50;1766362;81;20993;-77
2022/12/25 11:56:51;;;;;;;36.97;14.37;;;;;;;3.87;100.00;100448.56;1766250;81;21052;-76
2022/12/25 11:59:34;;;;;;;38.90;13.53;;;;;;;3.83;100.00;100459.14;1766174;81;21131;-77
2022/12/25 12:02:23;;;;;;;34.23;13.98;;;;;;;3.77;100.00;100458.63;1727588;83;21026;-77
2022/12/25 12:04:55;;;;;;;35.30;12.77;;;;;;;3.76;100.00;100462.27;1707674;84;21061;-78
2022/12/25 12:07:25;;;;;;;35.65;12.07;;;;;;;3.75;100.00;100465.93;1765685;81;21004;-77
2022/12/25 12:10:18;;;;;;;35.50;12.27;;;;;;;3.72;100.00;100467.48;1766147;81;21060;-76
2022/12/25 12:13:22;;;;;;;34.87;12.23;;;;;;;3.74;100.00;100464.70;1698285;84;21062;-77
2022/12/25 12:15:49;;;;;;;30.90;11.30;;;;;;;3.74;100.00;100469.56;1707385;84;21120;-77
2022/12/25 12:18:29;;;;;;;35.83;12.37;;;;;;;3.70;100.00;100468.09;1766431;81;20965;-77
2022/12/25 12:21:22;;;;;;;34.70;12.80;;;;;;;3.70;100.00;100480.59;1766238;81;21032;-78
2022/12/25 12:24:17;;;;;;;34.35;11.03;;;;;;;3.67;100.00;100486.20;1727877;83;21026;-77
2022/12/25 12:26:45;;;;;;;39.80;13.43;;;;;;;3.66;100.00;100477.30;1727439;82;21558;-78
2022/12/25 12:29:27;;;;;;;40.50;14.57;;;;;;;3.67;100.00;100482.19;1707622;84;21045;-77
2022/12/25 12:31:58;;;;;;;39.17;14.00;;;;;;;3.70;100.00;100476.12;1766258;81;21003;-77
2022/12/25 12:34:41;;;;;;;37.83;14.80;;;;;;;3.68;100.00;100476.69;1766344;81;21011;-77
2022/12/25 12:37:19;;;;;;;38.33;13.38;;;;;;;3.64;100.00;100479.24;1766365;81;21016;-78
2022/12/25 12:39:51;;;;;;;34.67;12.77;;;;;;;3.59;100.00;100486.75;1766424;81;20979;-78
2022/12/25 12:42:21;;;;;;;36.10;12.63;;;;;;;3.57;100.00;100483.34;1765942;81;21020;-79
2022/12/25 12:44:48;;;;;;;33.53;13.63;;;;;;;3.54;100.00;100484.91;1766231;81;20953;-77
2022/12/25 12:47:32;;;;;;;36.90;13.30;;;;;;;3.51;100.00;100491.35;1766063;81;21041;-77
2022/12/25 12:50:00;;;;;;;37.20;13.80;;;;;;;3.49;100.00;100487.94;1766243;81;21024;-77
2022/12/25 12:52:35;;;;;;;39.67;15.13;;;;;;;3.48;100.00;100486.22;1765982;81;21040;-77
2022/12/25 12:55:05;;;;;;;41.90;15.67;;;;;;;3.45;100.00;100490.95;1766439;81;20957;-77
2022/12/25 12:57:40;;;;;;;35.07;13.37;;;;;;;3.41;100.00;100499.68;1766331;81;21529;-77
2022/12/25 13:00:17;;;;;;;34.40;12.33;;;;;;;3.39;100.00;100506.97;1766266;81;21036;-79
2022/12/25 13:03:14;;;;;;;36.73;13.83;;;;;;;3.39;100.00;100505.63;1766414;81;20996;-78
2022/12/25 13:05:47;;;;;;;39.37;14.67;;;;;;;3.38;100.00;100508.80;1684008;84;21483;-77
2022/12/25 13:08:40;;;;;;;37.43;13.80;;;;;;;3.36;100.00;100515.20;1683670;85;21018;-78
2022/12/25 13:11:26;;;;;;;40.50;15.03;;;;;;;3.34;100.00;100522.48;1698200;81;21031;-78
2022/12/25 13:13:55;;;;;;;29.87;11.80;;;;;;;3.31;100.00;100522.70;1732599;83;21535;-77
2022/12/25 13:16:32;;;;;;;31.77;13.43;;;;;;;3.28;100.00;100521.62;1732849;83;21053;-77
2022/12/25 13:19:01;;;;;;;36.17;13.80;;;;;;;3.26;100.00;100524.86;1707675;84;21116;-77
2022/12/25 13:21:30;;;;;;;38.30;14.30;;;;;;;3.26;100.00;100520.84;1738303;83;21112;-78
2022/12/25 13:24:00;;;;;;;41.00;14.93;;;;;;;3.23;100.00;100520.11;1732810;81;21507;-77
2022/12/25 13:26:27;;;;;;;34.77;13.57;;;;;;;3.22;100.00;100522.89;1732704;83;21080;-78
2022/12/25 13:28:54;;;;;;;42.77;15.30;;;;;;;3.18;100.00;100530.28;1732523;83;21037;-77
2022/12/25 13:31:25;;;;;;;36.83;14.00;;;;;;;3.16;100.00;100532.22;1732793;83;21092;-78
2022/12/25 13:34:05;;;;;;;34.70;13.40;;;;;;;3.14;100.00;100534.64;1732225;81;21510;-77
2022/12/25 13:36:38;;;;;;;32.10;12.70;;;;;;;3.10;100.00;100543.82;1732726;83;20994;-77
2022/12/25 13:39:08;;;;;;;;;;;;;;;3.08;100.00;100545.76;1735343;81;21049;-77
2022/12/25 13:44:53;;;;;;;30.83;11.60;;;;;;;3.03;100.00;100554.12;1732752;82;21093;-78
2022/12/25 13:47:36;;;;;;;32.77;12.70;;;;;;;3.00;100.00;100548.99;1732500;83;21562;-78
2022/12/25 13:50:25;;;;;;;36.93;12.95;;;;;;;3.01;100.00;100555.56;1728839;83;21078;-79
2022/12/25 13:52:54;;;;;;;29.73;11.43;;;;;;;3.01;100.00;100554.23;1727283;83;20998;-78
2022/12/25 13:55:28;;;;;;;34.47;12.53;;;;;;;3.00;100.00;100551.66;1727224;83;21042;-78
2022/12/25 13:58:05;;;;;;;37.40;14.37;;;;;;;2.97;100.00;100550.53;1727401;82;21034;-76
2022/12/25 14:00:40;;;;;;;33.03;14.43;;;;;;;2.93;100.00;100553.91;1727298;83;21500;-78